createdAt,value
2022-11-17T00:00:46.179Z,19.68
2022-11-17T00:01:46.163Z,19.66
2022-11-17T00:02:46.240Z,19.68
2022-11-17T00:03:46.152Z,19.66
2022-11-17T00:04:46.141Z,19.66
2022-11-17T00:05:46.154Z,19.66
2022-11-17T00:06:46.117Z,19.66
2022-11-17T00:07:46.107Z,19.68
2022-11-17T00:08:46.100Z,19.68
2022-11-17T00:09:46.096Z,19.69
2022-11-17T00:10:46.078Z,19.68
2022-11-17T00:11:46.176Z,19.68
2022-11-17T00:12:46.057Z,19.68
2022-11-17T00:13:46.035Z,19.68
2022-11-17T00:14:46.036Z,19.68
2022-11-17T00:15:46.028Z,19.66
2022-11-17T00:16:46.009Z,19.69
2022-11-17T00:17:46.029Z,19.69
2022-11-17T00:18:45.993Z,19.69
2022-11-17T00:19:45.981Z,19.69
2022-11-17T00:20:45.969Z,19.71
2022-11-17T00:21:45.960Z,19.69
2022-11-17T00:22:45.945Z,19.68
2022-11-17T00:23:46.069Z,19.69
2022-11-17T00:24:45.924Z,19.69
2022-11-17T00:25:45.924Z,19.68
2022-11-17T00:26:45.904Z,19.66
2022-11-17T00:27:45.887Z,19.68
2022-11-17T00:28:45.890Z,19.68
2022-11-17T00:29:45.916Z,19.68
2022-11-17T00:30:45.857Z,19.69
2022-11-17T00:31:45.848Z,19.68
2022-11-17T00:32:45.836Z,19.66
2022-11-17T00:33:45.830Z,19.68
2022-11-17T00:34:45.821Z,19.68
2022-11-17T00:35:45.849Z,19.68
2022-11-17T00:36:45.810Z,19.68
2022-11-17T00:37:45.781Z,19.68
2022-11-17T00:38:45.776Z,19.68
2022-11-17T00:39:45.764Z,19.65
2022-11-17T00:40:45.894Z,19.65
2022-11-17T00:41:45.781Z,19.65
2022-11-17T00:42:45.737Z,19.66
2022-11-17T00:43:45.720Z,19.65
2022-11-17T00:44:45.705Z,19.65
2022-11-17T00:45:45.705Z,19.65
2022-11-17T00:46:45.685Z,19.65
2022-11-17T00:47:45.814Z,19.65
2022-11-17T00:48:45.669Z,19.65
2022-11-17T00:49:45.658Z,19.66
2022-11-17T00:50:45.641Z,19.66
2022-11-17T00:51:45.633Z,19.65
2022-11-17T00:52:45.618Z,19.63
2022-11-17T00:53:45.794Z,19.65
2022-11-17T00:54:45.602Z,19.65
2022-11-17T00:55:45.645Z,19.63
2022-11-17T00:56:45.585Z,19.62
2022-11-17T00:57:45.573Z,19.62
2022-11-17T00:58:45.555Z,19.65
2022-11-17T00:59:45.657Z,19.66
2022-11-17T01:00:45.534Z,19.63
2022-11-17T01:01:45.682Z,19.63
2022-11-17T01:02:45.514Z,19.65
2022-11-17T01:03:45.503Z,19.62
2022-11-17T01:04:45.497Z,19.62
2022-11-17T01:05:45.586Z,19.62
2022-11-17T01:06:45.475Z,19.62
2022-11-17T01:07:45.454Z,19.61
2022-11-17T01:08:45.450Z,19.62
2022-11-17T01:09:45.442Z,19.62
2022-11-17T01:10:45.426Z,19.62
2022-11-17T01:11:45.614Z,19.62
2022-11-17T01:12:45.411Z,19.61
2022-11-17T01:13:45.399Z,19.58
2022-11-17T01:14:45.387Z,19.59
2022-11-17T01:15:45.375Z,19.61
2022-11-17T01:16:45.370Z,19.58
2022-11-17T01:17:45.459Z,19.59
2022-11-17T01:18:45.338Z,19.58
2022-11-17T01:19:45.334Z,19.58
2022-11-17T01:20:45.328Z,19.58
2022-11-17T01:21:45.311Z,19.59
2022-11-17T01:22:45.300Z,19.59
2022-11-17T01:23:45.484Z,19.58
2022-11-17T01:24:45.288Z,19.58
2022-11-17T01:25:45.319Z,19.59
2022-11-17T01:26:45.286Z,19.56
2022-11-17T01:27:45.275Z,19.58
2022-11-17T01:28:45.237Z,19.56
2022-11-17T01:29:45.279Z,19.56
2022-11-17T01:30:45.215Z,19.56
2022-11-17T01:31:45.207Z,19.55
2022-11-17T01:32:45.193Z,19.56
2022-11-17T01:33:45.187Z,19.56
2022-11-17T01:34:45.177Z,19.58
2022-11-17T01:35:45.336Z,19.56
2022-11-17T01:36:45.147Z,19.58
2022-11-17T01:37:45.139Z,19.58
2022-11-17T01:38:45.127Z,19.56
2022-11-17T01:39:45.116Z,19.58
2022-11-17T01:40:45.107Z,19.55
2022-11-17T01:41:45.320Z,19.55
2022-11-17T01:42:45.088Z,19.55
2022-11-17T01:43:45.080Z,19.56
2022-11-17T01:44:45.059Z,19.56
2022-11-17T01:45:45.055Z,19.55
2022-11-17T01:46:45.047Z,19.54
2022-11-17T01:47:45.073Z,19.55
2022-11-17T01:48:45.023Z,19.54
2022-11-17T01:49:45.012Z,19.54
2022-11-17T01:50:44.995Z,19.55
2022-11-17T01:51:44.992Z,19.54
2022-11-17T01:52:44.985Z,19.54
2022-11-17T01:53:44.996Z,19.55
2022-11-17T01:54:44.953Z,19.55
2022-11-17T01:55:44.943Z,19.54
2022-11-17T01:56:44.934Z,19.56
2022-11-17T01:57:44.928Z,19.55
2022-11-17T01:58:44.912Z,19.58
2022-11-17T01:59:45.021Z,19.55
2022-11-17T02:00:44.896Z,19.55
2022-11-17T02:01:44.958Z,19.56
2022-11-17T02:02:44.872Z,19.55
2022-11-17T02:03:44.861Z,19.56
2022-11-17T02:04:44.852Z,19.55
2022-11-17T02:05:44.948Z,19.54
2022-11-17T02:06:44.834Z,19.51
2022-11-17T02:07:44.816Z,19.54
2022-11-17T02:08:44.815Z,19.54
2022-11-17T02:09:44.792Z,19.54
2022-11-17T02:10:51.293Z,19.51
2022-11-17T02:11:44.828Z,19.55
2022-11-17T02:12:44.779Z,19.55
2022-11-17T02:13:44.752Z,19.54
2022-11-17T02:14:44.744Z,19.54
2022-11-17T02:15:44.729Z,19.54
2022-11-17T02:16:44.724Z,19.51
2022-11-17T02:17:44.865Z,19.50
2022-11-17T02:18:44.697Z,19.50
2022-11-17T02:19:44.693Z,19.50
2022-11-17T02:20:44.683Z,19.50
2022-11-17T02:21:44.672Z,19.51
2022-11-17T02:22:44.660Z,19.48
2022-11-17T02:23:44.692Z,19.50
2022-11-17T02:24:44.632Z,19.51
2022-11-17T02:25:44.616Z,19.50
2022-11-17T02:26:44.612Z,19.51
2022-11-17T02:27:44.604Z,19.54
2022-11-17T02:28:44.596Z,19.50
2022-11-17T02:29:44.704Z,19.50
2022-11-17T02:30:44.567Z,19.48
2022-11-17T02:31:44.556Z,19.48
2022-11-17T02:32:44.553Z,19.50
2022-11-17T02:33:44.536Z,19.50
2022-11-17T02:34:44.530Z,19.48
2022-11-17T02:35:44.579Z,19.47
2022-11-17T02:36:44.508Z,19.47
2022-11-17T02:37:44.491Z,19.47
2022-11-17T02:38:44.489Z,19.48
2022-11-17T02:39:44.472Z,19.47
2022-11-17T02:40:44.463Z,19.48
2022-11-17T02:41:44.491Z,19.47
2022-11-17T02:42:44.437Z,19.46
2022-11-17T02:43:44.432Z,19.47
2022-11-17T02:44:44.412Z,19.48
2022-11-17T02:45:44.404Z,19.50
2022-11-17T02:46:44.396Z,19.50
2022-11-17T02:47:44.416Z,19.50
2022-11-17T02:48:44.376Z,19.50
2022-11-17T02:49:44.360Z,19.50
2022-11-17T02:50:44.353Z,19.50
2022-11-17T02:51:44.347Z,19.48
2022-11-17T02:52:44.336Z,19.47
2022-11-17T02:53:44.380Z,19.47
2022-11-17T02:54:44.308Z,19.47
2022-11-17T02:55:44.300Z,19.48
2022-11-17T02:56:44.297Z,19.47
2022-11-17T02:57:44.280Z,19.47
2022-11-17T02:58:44.263Z,19.48
2022-11-17T02:59:44.308Z,19.50
2022-11-17T03:00:44.241Z,19.50
2022-11-17T03:01:44.327Z,19.51
2022-11-17T03:02:44.228Z,19.48
2022-11-17T03:03:44.204Z,19.50
2022-11-17T03:04:44.204Z,19.48
2022-11-17T03:05:44.233Z,19.48
2022-11-17T03:06:44.185Z,19.47
2022-11-17T03:07:44.173Z,19.47
2022-11-17T03:08:44.167Z,19.47
2022-11-17T03:09:44.148Z,19.46
2022-11-17T03:10:44.132Z,19.44
2022-11-17T03:11:44.162Z,19.44
2022-11-17T03:12:44.120Z,19.44
2022-11-17T03:13:44.113Z,19.44
2022-11-17T03:14:44.102Z,19.47
2022-11-17T03:15:44.089Z,19.47
2022-11-17T03:16:44.076Z,19.47
2022-11-17T03:17:44.093Z,19.50
2022-11-17T03:18:44.049Z,19.50
2022-11-17T03:19:44.046Z,19.48
2022-11-17T03:20:44.025Z,19.48
2022-11-17T03:21:44.013Z,19.48
2022-11-17T03:22:44.009Z,19.47
2022-11-17T03:23:44.038Z,19.48
2022-11-17T03:24:43.982Z,19.50
2022-11-17T03:25:43.981Z,19.51
2022-11-17T03:26:43.971Z,19.51
2022-11-17T03:27:43.959Z,19.51
2022-11-17T03:28:43.952Z,19.54
2022-11-17T03:29:43.960Z,19.54
2022-11-17T03:30:43.921Z,19.51
2022-11-17T03:31:43.917Z,19.50
2022-11-17T03:32:43.906Z,19.50
2022-11-17T03:33:43.893Z,19.51
2022-11-17T03:34:43.882Z,19.54
2022-11-17T03:35:49.347Z,19.54
2022-11-17T03:36:43.861Z,19.55
2022-11-17T03:37:43.846Z,19.54
2022-11-17T03:38:43.839Z,19.55
2022-11-17T03:39:43.833Z,19.55
2022-11-17T03:40:43.813Z,19.54
2022-11-17T03:41:43.834Z,19.55
2022-11-17T03:42:43.794Z,19.55
2022-11-17T03:43:43.781Z,19.55
2022-11-17T03:44:43.765Z,19.58
2022-11-17T03:45:43.766Z,19.61
2022-11-17T03:46:43.750Z,19.62
2022-11-17T03:47:43.782Z,19.63
2022-11-17T03:48:43.730Z,19.62
2022-11-17T03:49:43.717Z,19.62
2022-11-17T03:50:43.701Z,19.63
2022-11-17T03:51:43.697Z,19.65
2022-11-17T03:52:43.685Z,19.63
2022-11-17T03:53:43.733Z,19.65
2022-11-17T03:54:43.675Z,19.66
2022-11-17T03:55:43.653Z,19.65
2022-11-17T03:56:43.645Z,19.65
2022-11-17T03:57:43.621Z,19.62
2022-11-17T03:58:43.622Z,19.62
2022-11-17T03:59:43.716Z,19.61
2022-11-17T04:00:43.597Z,19.59
2022-11-17T04:01:43.697Z,19.61
2022-11-17T04:02:43.586Z,19.61
2022-11-17T04:03:43.568Z,19.62
2022-11-17T04:04:43.553Z,19.63
2022-11-17T04:05:43.590Z,19.65
2022-11-17T04:06:43.540Z,19.65
2022-11-17T04:07:43.526Z,19.65
2022-11-17T04:08:43.514Z,19.65
2022-11-17T04:09:43.509Z,19.65
2022-11-17T04:10:43.494Z,19.62
2022-11-17T04:11:43.511Z,19.65
2022-11-17T04:12:43.474Z,19.62
2022-11-17T04:13:43.458Z,19.63
2022-11-17T04:14:43.449Z,19.65
2022-11-17T04:15:43.442Z,19.65
2022-11-17T04:16:43.428Z,19.63
2022-11-17T04:17:43.549Z,19.65
2022-11-17T04:18:43.406Z,19.66
2022-11-17T04:19:43.394Z,19.65
2022-11-17T04:20:43.391Z,19.68
2022-11-17T04:21:43.382Z,19.68
2022-11-17T04:22:43.364Z,19.66
2022-11-17T04:23:43.410Z,19.65
2022-11-17T04:24:43.342Z,19.68
2022-11-17T04:25:43.330Z,19.68
2022-11-17T04:26:43.320Z,19.66
2022-11-17T04:27:43.312Z,19.68
2022-11-17T04:28:43.295Z,19.68
2022-11-17T04:29:43.329Z,19.68
2022-11-17T04:30:43.282Z,19.66
2022-11-17T04:31:43.267Z,19.66
2022-11-17T04:32:43.255Z,19.69
2022-11-17T04:33:43.248Z,19.65
2022-11-17T04:34:43.234Z,19.65
2022-11-17T04:35:43.253Z,19.63
2022-11-17T04:36:43.217Z,19.63
2022-11-17T04:37:43.203Z,19.62
2022-11-17T04:38:43.191Z,19.63
2022-11-17T04:39:43.183Z,19.62
2022-11-17T04:40:43.171Z,19.61
2022-11-17T04:41:43.187Z,19.62
2022-11-17T04:42:43.147Z,19.63
2022-11-17T04:43:43.152Z,19.62
2022-11-17T04:44:43.133Z,19.61
2022-11-17T04:45:43.108Z,19.62
2022-11-17T04:46:43.104Z,19.62
2022-11-17T04:47:43.120Z,19.62
2022-11-17T04:48:43.081Z,19.62
2022-11-17T04:49:43.076Z,19.63
2022-11-17T04:50:43.056Z,19.63
2022-11-17T04:51:43.058Z,19.65
2022-11-17T04:52:43.040Z,19.66
2022-11-17T04:53:43.053Z,19.65
2022-11-17T04:54:43.023Z,19.66
2022-11-17T04:55:43.003Z,19.66
2022-11-17T04:56:43.004Z,19.65
2022-11-17T04:57:42.980Z,19.66
2022-11-17T04:58:42.976Z,19.65
2022-11-17T04:59:43.007Z,19.63
2022-11-17T05:00:42.963Z,19.65
2022-11-17T05:01:43.018Z,19.65
2022-11-17T05:02:42.971Z,19.63
2022-11-17T05:03:42.928Z,19.63
2022-11-17T05:04:42.917Z,19.63
2022-11-17T05:05:42.956Z,19.62
2022-11-17T05:06:42.885Z,19.63
2022-11-17T05:07:42.885Z,19.65
2022-11-17T05:08:42.870Z,19.65
2022-11-17T05:09:42.853Z,19.66
2022-11-17T05:10:42.902Z,19.66
2022-11-17T05:11:42.952Z,19.68
2022-11-17T05:12:42.821Z,19.68
2022-11-17T05:13:42.818Z,19.66
2022-11-17T05:14:42.809Z,19.66
2022-11-17T05:15:42.794Z,19.65
2022-11-17T05:16:42.784Z,19.66
2022-11-17T05:17:42.801Z,19.65
2022-11-17T05:18:42.773Z,19.63
2022-11-17T05:19:42.751Z,19.61
2022-11-17T05:20:42.745Z,19.59
2022-11-17T05:21:42.730Z,19.56
2022-11-17T05:22:42.719Z,19.55
2022-11-17T05:23:42.746Z,19.50
2022-11-17T05:24:42.703Z,19.50
2022-11-17T05:25:42.687Z,19.48
2022-11-17T05:26:42.679Z,19.47
2022-11-17T05:27:42.666Z,19.46
2022-11-17T05:28:42.656Z,19.44
2022-11-17T05:29:42.658Z,19.44
2022-11-17T05:30:42.632Z,19.43
2022-11-17T05:31:42.623Z,19.41
2022-11-17T05:32:42.610Z,19.41
2022-11-17T05:33:43.041Z,19.40
2022-11-17T05:34:42.593Z,19.39
2022-11-17T05:35:42.611Z,19.37
2022-11-17T05:36:42.570Z,19.37
2022-11-17T05:37:42.558Z,19.36
2022-11-17T05:38:42.547Z,19.33
2022-11-17T05:39:42.533Z,19.37
2022-11-17T05:40:42.532Z,19.36
2022-11-17T05:41:42.543Z,19.39
2022-11-17T05:42:42.507Z,19.39
2022-11-17T05:43:42.495Z,19.39
2022-11-17T05:44:42.488Z,19.37
2022-11-17T05:45:42.476Z,19.39
2022-11-17T05:46:42.458Z,19.37
2022-11-17T05:47:42.475Z,19.37
2022-11-17T05:48:42.446Z,19.33
2022-11-17T05:49:42.430Z,19.33
2022-11-17T05:50:42.416Z,19.33
2022-11-17T05:51:42.411Z,19.33
2022-11-17T05:52:42.396Z,19.33
2022-11-17T05:53:42.427Z,19.31
2022-11-17T05:54:42.374Z,19.32
2022-11-17T05:55:42.365Z,19.31
2022-11-17T05:56:42.356Z,19.31
2022-11-17T05:57:42.345Z,19.29
2022-11-17T05:58:42.336Z,19.28
2022-11-17T05:59:42.472Z,19.26
2022-11-17T06:00:42.312Z,19.28
2022-11-17T06:01:42.304Z,19.25
2022-11-17T06:02:42.292Z,19.25
2022-11-17T06:03:42.287Z,19.25
2022-11-17T06:04:42.318Z,19.23
2022-11-17T06:05:42.280Z,19.23
2022-11-17T06:06:42.253Z,19.23
2022-11-17T06:07:42.236Z,19.22
2022-11-17T06:08:42.225Z,19.21
2022-11-17T06:09:42.221Z,19.22
2022-11-17T06:10:42.209Z,19.23
2022-11-17T06:11:42.225Z,19.22
2022-11-17T06:12:42.191Z,19.21
2022-11-17T06:13:42.176Z,19.21
2022-11-17T06:14:42.161Z,19.21
2022-11-17T06:15:42.161Z,19.19
2022-11-17T06:16:42.144Z,19.21
2022-11-17T06:17:42.162Z,19.19
2022-11-17T06:18:42.116Z,19.18
2022-11-17T06:19:42.108Z,19.18
2022-11-17T06:20:42.096Z,19.18
2022-11-17T06:22:09.864Z,19.16
2022-11-17T06:22:47.996Z,19.18
2022-11-17T06:23:42.109Z,19.16
2022-11-17T06:24:42.055Z,19.18
2022-11-17T06:25:42.052Z,19.16
2022-11-17T06:26:42.037Z,19.16
2022-11-17T06:27:42.017Z,19.16
2022-11-17T06:28:42.013Z,19.18
2022-11-17T06:29:44.694Z,19.16
2022-11-17T06:30:42.001Z,19.14
2022-11-17T06:31:41.983Z,19.14
2022-11-17T06:32:41.973Z,19.13
2022-11-17T06:33:41.963Z,19.14
2022-11-17T06:34:41.951Z,19.16
2022-11-17T06:35:42.114Z,19.19
2022-11-17T06:36:41.925Z,19.26
2022-11-17T06:37:41.930Z,19.28
2022-11-17T06:38:41.910Z,19.29
2022-11-17T06:39:41.890Z,19.28
2022-11-17T06:40:41.885Z,19.26
2022-11-17T06:41:42.045Z,19.23
2022-11-17T06:42:41.863Z,19.22
2022-11-17T06:43:41.855Z,19.21
2022-11-17T06:44:41.842Z,19.19
2022-11-17T06:45:41.834Z,19.18
2022-11-17T06:46:46.207Z,19.16
2022-11-17T06:47:41.850Z,19.18
2022-11-17T06:48:41.801Z,19.16
2022-11-17T06:49:41.790Z,19.16
2022-11-17T06:50:41.778Z,19.16
2022-11-17T06:51:45.169Z,19.14
2022-11-17T06:52:41.802Z,19.14
2022-11-17T06:53:41.813Z,19.14
2022-11-17T06:54:41.793Z,19.13
2022-11-17T06:55:41.746Z,19.13
2022-11-17T06:56:41.757Z,19.13
2022-11-17T06:57:41.725Z,19.14
2022-11-17T06:58:41.737Z,19.14
2022-11-17T06:59:41.739Z,19.13
2022-11-17T07:00:41.765Z,19.16
2022-11-17T07:01:41.707Z,19.14
2022-11-17T07:02:41.670Z,19.14
2022-11-17T07:03:41.663Z,19.16
2022-11-17T07:04:41.670Z,19.16
2022-11-17T07:05:41.693Z,19.18
2022-11-17T07:06:41.626Z,19.16
2022-11-17T07:07:41.622Z,19.16
2022-11-17T07:08:41.644Z,19.16
2022-11-17T07:09:41.594Z,19.16
2022-11-17T07:10:46.449Z,19.18
2022-11-17T07:11:41.614Z,19.18
2022-11-17T07:12:41.586Z,19.18
2022-11-17T07:13:41.550Z,19.16
2022-11-17T07:14:41.538Z,19.18
2022-11-17T07:15:41.555Z,19.18
2022-11-17T07:16:41.558Z,19.18
2022-11-17T07:17:41.544Z,19.19
2022-11-17T07:18:41.521Z,19.19
2022-11-17T07:19:41.487Z,19.19
2022-11-17T07:20:41.503Z,19.21
2022-11-17T07:21:41.488Z,19.21
2022-11-17T07:22:41.464Z,19.19
2022-11-17T07:23:41.474Z,19.18
2022-11-17T07:24:41.434Z,19.18
2022-11-17T07:25:41.447Z,19.19
2022-11-17T07:26:41.435Z,19.18
2022-11-17T07:27:41.427Z,19.19
2022-11-17T07:28:41.412Z,19.18
2022-11-17T07:29:41.424Z,19.19
2022-11-17T07:30:41.368Z,19.19
2022-11-17T07:31:41.355Z,19.19
2022-11-17T07:32:41.345Z,19.19
2022-11-17T07:33:41.356Z,19.19
2022-11-17T07:34:41.347Z,19.21
2022-11-17T07:35:41.379Z,19.22
2022-11-17T07:36:41.309Z,19.21
2022-11-17T07:37:41.311Z,19.22
2022-11-17T07:38:41.283Z,19.22
2022-11-17T07:39:41.272Z,19.23
2022-11-17T07:40:41.259Z,19.23
2022-11-17T07:41:41.305Z,19.22
2022-11-17T07:42:41.236Z,19.23
2022-11-17T07:43:41.228Z,19.22
2022-11-17T07:44:41.240Z,19.22
2022-11-17T07:45:41.231Z,19.23
2022-11-17T07:46:41.216Z,19.22
2022-11-17T07:47:41.244Z,19.23
2022-11-17T07:48:41.177Z,19.22
2022-11-17T07:49:41.184Z,19.22
2022-11-17T07:50:41.148Z,19.21
2022-11-17T07:51:41.160Z,19.21
2022-11-17T07:52:41.694Z,19.21
2022-11-17T07:53:41.144Z,19.21
2022-11-17T07:54:41.128Z,19.21
2022-11-17T07:55:41.114Z,19.21
2022-11-17T07:56:41.084Z,19.21
2022-11-17T07:57:41.091Z,19.19
2022-11-17T07:58:41.063Z,19.21
2022-11-17T07:59:41.108Z,19.21
2022-11-17T08:00:41.117Z,19.22
2022-11-17T08:01:41.032Z,19.22
2022-11-17T08:02:41.020Z,19.22
2022-11-17T08:03:41.044Z,19.22
2022-11-17T08:04:41.002Z,19.22
2022-11-17T08:05:43.613Z,19.23
2022-11-17T08:06:40.973Z,19.23
2022-11-17T08:07:40.994Z,19.23
2022-11-17T08:08:40.977Z,19.22
2022-11-17T08:09:40.964Z,19.22
2022-11-17T08:10:40.943Z,19.22
2022-11-17T08:11:40.961Z,19.21
2022-11-17T08:12:40.909Z,19.21
2022-11-17T08:13:40.921Z,19.22
2022-11-17T08:14:40.913Z,19.21
2022-11-17T08:15:40.877Z,19.22
2022-11-17T08:16:40.864Z,19.22
2022-11-17T08:17:40.905Z,19.21
2022-11-17T08:18:41.001Z,19.21
2022-11-17T08:19:40.868Z,19.21
2022-11-17T08:20:40.848Z,19.22
2022-11-17T08:21:40.836Z,19.22
2022-11-17T08:22:40.825Z,19.21
2022-11-17T08:23:40.838Z,19.22
2022-11-17T08:24:40.789Z,19.22
2022-11-17T08:25:40.800Z,19.22
2022-11-17T08:26:40.756Z,19.21
2022-11-17T08:27:40.777Z,19.19
2022-11-17T08:28:40.895Z,19.19
2022-11-17T08:29:40.776Z,19.21
2022-11-17T08:30:40.716Z,19.19
2022-11-17T08:31:40.725Z,19.21
2022-11-17T08:32:40.717Z,19.18
2022-11-17T08:33:40.709Z,19.18
2022-11-17T08:34:40.670Z,19.18
2022-11-17T08:35:40.829Z,19.18
2022-11-17T08:36:40.649Z,19.18
2022-11-17T08:37:40.671Z,19.18
2022-11-17T08:38:40.709Z,19.16
2022-11-17T08:39:40.618Z,19.18
2022-11-17T08:40:40.630Z,19.18
2022-11-17T08:41:40.761Z,19.18
2022-11-17T08:42:40.604Z,19.18
2022-11-17T08:43:40.597Z,19.16
2022-11-17T08:44:40.562Z,19.18
2022-11-17T08:45:40.577Z,19.18
2022-11-17T08:46:40.542Z,19.18
2022-11-17T08:47:40.570Z,19.18
2022-11-17T08:48:40.671Z,19.16
2022-11-17T08:49:40.510Z,19.16
2022-11-17T08:50:40.522Z,19.18
2022-11-17T08:51:40.509Z,19.18
2022-11-17T08:52:40.474Z,19.18
2022-11-17T08:53:40.494Z,19.18
2022-11-17T08:54:40.477Z,19.18
2022-11-17T08:55:41.467Z,19.18
2022-11-17T08:56:40.460Z,19.16
2022-11-17T08:57:40.422Z,19.18
2022-11-17T08:58:40.537Z,19.18
2022-11-17T08:59:40.445Z,19.19
2022-11-17T09:00:40.445Z,19.19
2022-11-17T09:01:40.488Z,19.18
2022-11-17T09:02:40.373Z,19.18
2022-11-17T09:03:40.361Z,19.16
2022-11-17T09:04:40.353Z,19.16
2022-11-17T09:05:40.379Z,19.18
2022-11-17T09:06:40.331Z,19.19
2022-11-17T09:07:40.366Z,19.18
2022-11-17T09:08:47.834Z,19.22
2022-11-17T09:09:40.337Z,19.23
2022-11-17T09:10:40.262Z,19.26
2022-11-17T09:11:40.314Z,19.29
2022-11-17T09:12:40.242Z,19.32
2022-11-17T09:13:40.253Z,19.36
2022-11-17T09:14:40.232Z,19.33
2022-11-17T09:15:40.233Z,19.33
2022-11-17T09:16:40.217Z,19.36
2022-11-17T09:17:40.238Z,19.37
2022-11-17T09:18:40.638Z,19.37
2022-11-17T09:19:40.187Z,19.37
2022-11-17T09:20:45.277Z,19.39
2022-11-17T09:21:40.173Z,19.37
2022-11-17T09:22:40.154Z,19.37
2022-11-17T09:23:40.371Z,19.36
2022-11-17T09:24:40.139Z,19.33
2022-11-17T09:25:40.182Z,19.32
2022-11-17T09:26:40.114Z,19.31
2022-11-17T09:27:40.105Z,19.29
2022-11-17T09:28:40.555Z,19.29
2022-11-17T09:29:40.102Z,19.26
2022-11-17T09:30:40.050Z,19.25
2022-11-17T09:31:40.147Z,19.26
2022-11-17T09:32:40.055Z,19.25
2022-11-17T09:33:40.038Z,19.22
2022-11-17T09:34:40.076Z,19.22
2022-11-17T09:35:40.034Z,19.19
2022-11-17T09:36:40.006Z,19.18
2022-11-17T09:37:39.974Z,19.16
2022-11-17T09:38:40.224Z,19.16
2022-11-17T09:39:39.950Z,19.14
2022-11-17T09:40:39.938Z,19.14
2022-11-17T09:41:39.959Z,19.18
2022-11-17T09:42:39.943Z,19.16
2022-11-17T09:43:39.909Z,19.16
2022-11-17T09:44:40.014Z,19.16
2022-11-17T09:45:39.908Z,19.19
2022-11-17T09:46:39.877Z,19.18
2022-11-17T09:47:39.935Z,19.19
2022-11-17T09:48:41.360Z,19.19
2022-11-17T09:49:39.869Z,19.19
2022-11-17T09:50:39.834Z,19.18
2022-11-17T09:51:39.842Z,19.19
2022-11-17T09:52:39.810Z,19.23
2022-11-17T09:53:39.824Z,19.25
2022-11-17T09:54:39.811Z,19.31
2022-11-17T09:55:39.803Z,19.39
2022-11-17T09:56:39.768Z,19.40
2022-11-17T09:57:39.772Z,19.43
2022-11-17T09:58:40.003Z,19.48
2022-11-17T09:59:39.779Z,19.54
2022-11-17T10:00:39.748Z,19.59
2022-11-17T10:01:39.808Z,19.66
2022-11-17T10:02:39.750Z,19.71
2022-11-17T10:03:45.166Z,19.74
2022-11-17T10:04:39.690Z,19.77
2022-11-17T10:05:39.703Z,19.81
2022-11-17T10:06:39.655Z,19.84
2022-11-17T10:07:39.648Z,19.84
2022-11-17T10:08:39.635Z,19.86
2022-11-17T10:09:39.649Z,19.88
2022-11-17T10:10:39.636Z,19.91
2022-11-17T10:11:39.640Z,19.88
2022-11-17T10:12:39.615Z,19.91
2022-11-17T10:13:39.604Z,19.87
2022-11-17T10:14:39.592Z,19.84
2022-11-17T10:15:39.584Z,19.83
2022-11-17T10:16:39.572Z,19.83
2022-11-17T10:17:39.604Z,19.81
2022-11-17T10:18:39.609Z,19.80
2022-11-17T10:19:39.542Z,19.80
2022-11-17T10:20:39.536Z,19.80
2022-11-17T10:21:39.492Z,19.81
2022-11-17T10:22:39.483Z,19.80
2022-11-17T10:23:45.862Z,19.80
2022-11-17T10:24:39.493Z,19.78
2022-11-17T10:25:39.448Z,19.78
2022-11-17T10:26:39.436Z,19.78
2022-11-17T10:27:39.454Z,19.77
2022-11-17T10:28:39.417Z,19.77
2022-11-17T10:29:39.445Z,19.78
2022-11-17T10:30:39.401Z,19.77
2022-11-17T10:31:39.408Z,19.78
2022-11-17T10:32:43.968Z,20.11
2022-11-17T10:33:39.669Z,20.79
2022-11-17T10:34:41.711Z,21.38
2022-11-17T10:35:39.390Z,21.82
2022-11-17T10:36:39.353Z,21.69
2022-11-17T10:37:39.326Z,21.62
2022-11-17T10:38:39.309Z,21.64
2022-11-17T10:39:39.321Z,21.37
2022-11-17T10:40:39.309Z,21.14
2022-11-17T10:41:39.329Z,20.94
2022-11-17T10:42:39.471Z,20.77
2022-11-17T10:43:39.254Z,20.62
2022-11-17T10:44:39.245Z,20.51
2022-11-17T10:45:39.234Z,20.39
2022-11-17T10:46:46.339Z,20.32
2022-11-17T10:47:39.277Z,20.24
2022-11-17T10:48:39.202Z,20.18
2022-11-17T10:49:39.214Z,20.14
2022-11-17T10:50:39.201Z,20.11
2022-11-17T10:51:39.167Z,20.06
2022-11-17T10:52:39.181Z,20.03
2022-11-17T10:53:45.133Z,20.01
2022-11-17T10:54:39.143Z,20.01
2022-11-17T10:55:39.146Z,19.96
2022-11-17T10:56:39.137Z,19.96
2022-11-17T10:57:39.105Z,19.94
2022-11-17T10:58:39.090Z,19.92
2022-11-17T10:59:39.142Z,19.91
2022-11-17T11:00:39.095Z,19.91
2022-11-17T11:01:39.096Z,19.91
2022-11-17T11:02:39.071Z,19.88
2022-11-17T11:03:39.267Z,19.88
2022-11-17T11:04:39.026Z,19.91
2022-11-17T11:05:39.054Z,19.88
2022-11-17T11:06:39.027Z,19.88
2022-11-17T11:07:39.077Z,19.87
2022-11-17T11:08:39.007Z,19.87
2022-11-17T11:09:38.971Z,19.86
2022-11-17T11:10:38.988Z,19.83
2022-11-17T11:11:39.020Z,19.83
2022-11-17T11:12:38.944Z,19.83
2022-11-17T11:13:38.931Z,19.81
2022-11-17T11:14:38.943Z,19.80
2022-11-17T11:15:38.906Z,19.80
2022-11-17T11:16:42.455Z,19.78
2022-11-17T11:17:38.932Z,19.78
2022-11-17T11:18:38.898Z,19.77
2022-11-17T11:19:38.863Z,19.77
2022-11-17T11:20:38.875Z,19.76
2022-11-17T11:21:38.867Z,19.76
2022-11-17T11:22:38.831Z,19.77
2022-11-17T11:23:38.884Z,19.76
2022-11-17T11:24:38.835Z,19.76
2022-11-17T11:25:38.803Z,19.77
2022-11-17T11:26:38.787Z,19.77
2022-11-17T11:27:38.810Z,19.77
2022-11-17T11:28:42.708Z,19.77
2022-11-17T11:29:38.824Z,19.77
2022-11-17T11:30:38.767Z,19.77
2022-11-17T11:31:38.740Z,19.81
2022-11-17T11:32:38.727Z,19.86
2022-11-17T11:33:38.736Z,19.88
2022-11-17T11:34:38.728Z,19.91
2022-11-17T11:35:38.743Z,19.92
2022-11-17T11:36:38.704Z,19.95
2022-11-17T11:37:38.673Z,20.02
2022-11-17T11:38:38.683Z,20.05
2022-11-17T11:39:38.672Z,20.05
2022-11-17T11:40:38.666Z,20.02
2022-11-17T11:41:38.683Z,20.02
2022-11-17T11:42:38.616Z,20.03
2022-11-17T11:43:38.632Z,20.03
2022-11-17T11:44:38.598Z,20.02
2022-11-17T11:45:38.584Z,19.99
2022-11-17T11:46:38.600Z,19.96
2022-11-17T11:47:38.600Z,19.95
2022-11-17T11:48:38.552Z,19.96
2022-11-17T11:49:38.563Z,19.95
2022-11-17T11:50:41.721Z,19.94
2022-11-17T11:51:38.520Z,19.92
2022-11-17T11:52:38.533Z,19.88
2022-11-17T11:53:38.530Z,19.88
2022-11-17T11:54:40.474Z,19.88
2022-11-17T11:55:38.481Z,19.86
2022-11-17T11:56:38.465Z,19.86
2022-11-17T11:57:38.457Z,19.84
2022-11-17T11:58:38.469Z,19.84
2022-11-17T11:59:38.492Z,19.83
2022-11-17T12:00:38.448Z,19.83
2022-11-17T12:01:38.437Z,19.81
2022-11-17T12:02:38.495Z,19.83
2022-11-17T12:03:38.427Z,19.81
2022-11-17T12:04:38.405Z,19.84
2022-11-17T12:05:38.416Z,19.91
2022-11-17T12:06:38.359Z,19.92
2022-11-17T12:07:38.423Z,19.95
2022-11-17T12:08:38.365Z,20.02
2022-11-17T12:09:38.349Z,20.10
2022-11-17T12:10:38.318Z,20.18
2022-11-17T12:11:38.352Z,20.24
2022-11-17T12:12:38.317Z,20.31
2022-11-17T12:13:43.845Z,20.35
2022-11-17T12:14:38.301Z,20.35
2022-11-17T12:15:38.286Z,20.33
2022-11-17T12:16:38.277Z,20.29
2022-11-17T12:17:38.339Z,20.32
2022-11-17T12:18:38.253Z,20.33
2022-11-17T12:19:38.221Z,20.28
2022-11-17T12:20:38.209Z,20.26
2022-11-17T12:21:38.221Z,20.20
2022-11-17T12:22:38.187Z,20.17
2022-11-17T12:23:38.240Z,20.16
2022-11-17T12:24:38.264Z,20.13
2022-11-17T12:25:38.153Z,20.14
2022-11-17T12:26:38.174Z,20.14
2022-11-17T12:27:38.162Z,20.14
2022-11-17T12:28:38.178Z,20.13
2022-11-17T12:29:38.138Z,20.13
2022-11-17T12:30:38.101Z,20.10
2022-11-17T12:31:38.089Z,20.06
2022-11-17T12:32:38.104Z,20.05
2022-11-17T12:33:38.069Z,20.03
2022-11-17T12:34:38.081Z,20.02
2022-11-17T12:35:38.189Z,19.99
2022-11-17T12:36:38.038Z,19.98
2022-11-17T12:37:38.050Z,19.96
2022-11-17T12:38:38.037Z,19.95
2022-11-17T12:39:38.005Z,19.95
2022-11-17T12:40:37.993Z,19.95
2022-11-17T12:41:38.036Z,19.96
2022-11-17T12:42:37.988Z,19.94
2022-11-17T12:43:37.998Z,19.92
2022-11-17T12:44:37.979Z,19.92
2022-11-17T12:45:41.833Z,19.91
2022-11-17T12:46:37.927Z,19.91
2022-11-17T12:47:38.033Z,19.88
2022-11-17T12:48:38.052Z,19.88
2022-11-17T12:49:37.898Z,19.87
2022-11-17T12:50:37.897Z,19.87
2022-11-17T12:51:37.898Z,19.86
2022-11-17T12:52:37.869Z,19.84